Chaud Clapier (26) - G

Date : 09/06/2012
Distance : 2,400 km

Place Nom Licence Catégorie Club Temps min/km CN à J-60 Points Différence Nouveau CN
1 BUHRE Anders 7430 H70 0615AZ 0:24:48 10'20 5712 5481 -231 5776
2 SINIBALDI Marc 1347 H70 3801RA 0:28:16 11'46 4275 4809 +534 4497
3 DEVILLE Nelly 2401 D60 5402LO 0:32:08 13'23 4688 4230 -458 4568
4 GANDON J-Claude 249 H70 6906RA 0:32:23 13'29 4025 4198 +173 4140
5 ANNE Brigitte 1672 D60 0111RA 0:32:44 13'38 3312 4153 +841 3581
6 DIEUDONNE Madeleine 1380 D65 7808IF 0:33:42 14'02 3923 4034 +111 3942
7 ILLES Dominique 3515 D60 4802LR 0:35:37 14'50 3701 3817 +116 3825
8 DUBROCA Monique 633 D65 3308AQ 0:36:03 15'01 4230 3771 -459 4380
9 VOGT Christiane 2557 D65 6709AL 0:36:37 15'15 3418 3712 +294 3568
10 ROBERT Francoise 6491 D60 6913RA 0:38:46 16'09 4064 3507 -557 4075
11 BERGER M-Jose 7182 D60 5703LO 0:39:05 16'17 3632 3478 -154 3703
12 RAUCOULES Christine 258 D60 3811RA 0:39:48 16'35 2916 3416 +500 2761
13 BLASCO Nicole 395 D65 2406AQ 0:40:14 16'45 3797 3379 -418 3695
14 ABISSE Gisele 701 D65 2508FC 0:40:52 17'01 3456 3326 -130 3413
15 THIEBAULT Monique 5033 D65 3318AQ 0:41:55 17'27 3594 3243 -351 3405
16 ANFOSSI Giuseppe 14235 H70 0615AZ 0:42:17 17'37 2271 3215 +944 2974
17 HELIOT Claude 2349 H70 6906RA 0:42:23 17'39 3025 3207 +182 2922
18 MONTANARI Colette 2533 D60 5703LO 0:43:26 18'05 3496 3130 -366 3558
19 CHALOPIN Catherine 3674 D60 2105BO 0:46:47 19'29 3689 2906 -783 3573
20 GROSJEAN A-Marie 12059 D70 6913RA 0:49:07 20'27 2749 2768 +19 2785
21 TESTOUD Philippe 935 H70 7707IF 0:50:02 20'50 3346 2717 -629 3449
22 LARMINACH Andre 646 H70 3308AQ 0:50:55 21'12 4246 2670 -1576 4189
23 COULON Annick 10073 D60 0615AZ 0:51:36 21'30 3518 2634 -884 3509
24 BAUDOIN Annie 16634 D60 0615AZ 0:51:54 21'37 2966 2619 -347 3117
25 JEANPIERRE M-Therese 3302 D65 8809LO 0:52:28 21'51 3111 2591 -520 3058
26 BOUILLET Geneviève 8944 D60 3811RA 0:52:53 22'02 2282 2571 +289 2401
27 BOUCHERLE Ghislaine 4479 D60 3801RA 0:53:54 22'27 3491 2522 -969 3239
28 THIEBAULT M-Paule 4490 D60 6804AL 0:55:58 23'19 2337 2429 +92 2384
29 PROST Gisele 2182 D60 9307IF 0:56:54 23'42 2709 2389 -320 2574
30 GEOFFROY Nicole 6443 D60 3408LR 0:57:02 23'45 3216 2383 -833 2972
31 LEMERCIER Jocelyne 2474 D60 5407LO 0:57:47 24'04 3127 2353 -774 3201
32 BARRAL Michele 7422 D60 4601MP 0:58:06 24'12 2524 2340 -184 2486
33 PROST Daniel 2181 H70 9307IF 0:59:46 24'54 2804 2274 -530 2907
34 BOCHET Roland 512 H70 3408LR 1:00:36 25'15 1971 2243 +272 2201
35 BRUNEL Marie-Jo 8761 D60 8903BO 1:01:36 25'40 3628 2207 -1421 3696
36 WOEHRLE Gilbert 370 H70 6803AL 1:02:33 26'03 2780 2173 -607 3098
37 POGU Paulette 4671 D60 5402LO 1:04:00 26'40 3079 2124 -955 3112
38 DODIN Genevieve 4392 D60 8809LO 1:10:16 29'16 2422 1935 -487 2446
39 THIEVENAZ Francoise 19672 D60 3811RA 1:12:05 30'02 0 1886 1826
40 PEETERS Simone 295 D70 7305RA 1:15:58 31'39 2142 1789 -353 1946
41 BASTIEN-FATH Nicole 8954 D65 5402LO 1:20:30 33'32 2557 1689 -868 2546
42 LUDEWIG-JAMES Carol 15894 D70 5907NO 1:30:59 37'54 2242 1494 -748 2136